sensor_id;sensor_type;location;lat;lon;timestamp;temperature;humidity
12839;DHT22;6486;51.034;5.262;2023-08-06T00:00:25;17.70;80.00
12839;DHT22;6486;51.034;5.262;2023-08-06T00:02:51;17.70;80.00
12839;DHT22;6486;51.034;5.262;2023-08-06T00:05:16;17.70;80.10
12839;DHT22;6486;51.034;5.262;2023-08-06T00:07:50;17.70;80.10
12839;DHT22;6486;51.034;5.262;2023-08-06T00:10:16;17.70;80.10
12839;DHT22;6486;51.034;5.262;2023-08-06T00:12:43;17.70;80.10
12839;DHT22;6486;51.034;5.262;2023-08-06T00:15:09;17.70;80.20
12839;DHT22;6486;51.034;5.262;2023-08-06T00:17:35;17.70;80.30
12839;DHT22;6486;51.034;5.262;2023-08-06T00:20:02;17.70;80.30
12839;DHT22;6486;51.034;5.262;2023-08-06T00:22:32;17.70;80.40
12839;DHT22;6486;51.034;5.262;2023-08-06T00:24:58;17.60;80.30
12839;DHT22;6486;51.034;5.262;2023-08-06T00:27:24;17.60;80.40
12839;DHT22;6486;51.034;5.262;2023-08-06T00:29:49;17.60;80.50
12839;DHT22;6486;51.034;5.262;2023-08-06T00:32:15;17.60;80.90
12839;DHT22;6486;51.034;5.262;2023-08-06T00:34:41;17.60;80.50
12839;DHT22;6486;51.034;5.262;2023-08-06T00:37:06;17.70;80.60
12839;DHT22;6486;51.034;5.262;2023-08-06T00:39:32;17.60;80.60
12839;DHT22;6486;51.034;5.262;2023-08-06T00:41:58;17.60;80.60
12839;DHT22;6486;51.034;5.262;2023-08-06T00:44:24;17.60;80.60
12839;DHT22;6486;51.034;5.262;2023-08-06T00:46:49;17.60;80.70
12839;DHT22;6486;51.034;5.262;2023-08-06T00:49:15;17.60;80.70
12839;DHT22;6486;51.034;5.262;2023-08-06T00:51:42;17.60;80.70
12839;DHT22;6486;51.034;5.262;2023-08-06T00:54:09;17.60;80.70
12839;DHT22;6486;51.034;5.262;2023-08-06T00:56:35;17.60;80.80
12839;DHT22;6486;51.034;5.262;2023-08-06T00:59:05;17.60;80.80
12839;DHT22;6486;51.034;5.262;2023-08-06T01:01:31;17.60;80.90
12839;DHT22;6486;51.034;5.262;2023-08-06T01:03:57;17.60;80.90
12839;DHT22;6486;51.034;5.262;2023-08-06T01:09:44;17.50;80.90
12839;DHT22;6486;51.034;5.262;2023-08-06T01:12:45;17.50;81.00
12839;DHT22;6486;51.034;5.262;2023-08-06T01:15:26;17.50;81.10
12839;DHT22;6486;51.034;5.262;2023-08-06T01:17:53;17.50;81.20
12839;DHT22;6486;51.034;5.262;2023-08-06T01:20:19;17.50;81.20
12839;DHT22;6486;51.034;5.262;2023-08-06T01:22:45;17.50;81.30
12839;DHT22;6486;51.034;5.262;2023-08-06T01:25:15;17.50;81.30
12839;DHT22;6486;51.034;5.262;2023-08-06T01:27:52;17.50;81.30
12839;DHT22;6486;51.034;5.262;2023-08-06T01:30:32;17.50;81.40
12839;DHT22;6486;51.034;5.262;2023-08-06T01:33:04;17.50;81.40
12839;DHT22;6486;51.034;5.262;2023-08-06T01:35:32;17.50;81.50
12839;DHT22;6486;51.034;5.262;2023-08-06T01:38:00;17.50;81.50
12839;DHT22;6486;51.034;5.262;2023-08-06T01:40:26;17.50;81.50
12839;DHT22;6486;51.034;5.262;2023-08-06T01:42:53;17.50;81.60
12839;DHT22;6486;51.034;5.262;2023-08-06T01:45:19;17.50;81.60
12839;DHT22;6486;51.034;5.262;2023-08-06T01:47:45;17.50;81.70
12839;DHT22;6486;51.034;5.262;2023-08-06T01:50:10;17.50;81.80
12839;DHT22;6486;51.034;5.262;2023-08-06T01:52:36;17.50;81.90
12839;DHT22;6486;51.034;5.262;2023-08-06T01:55:01;17.40;81.90
12839;DHT22;6486;51.034;5.262;2023-08-06T01:57:28;17.50;82.00
12839;DHT22;6486;51.034;5.262;2023-08-06T01:59:54;17.50;82.10
12839;DHT22;6486;51.034;5.262;2023-08-06T02:02:19;17.50;82.10
12839;DHT22;6486;51.034;5.262;2023-08-06T02:04:45;17.50;82.20
12839;DHT22;6486;51.034;5.262;2023-08-06T02:07:10;17.50;82.20
12839;DHT22;6486;51.034;5.262;2023-08-06T02:09:36;17.50;82.30
12839;DHT22;6486;51.034;5.262;2023-08-06T02:12:02;17.50;82.40
12839;DHT22;6486;51.034;5.262;2023-08-06T02:14:28;17.50;82.40
12839;DHT22;6486;51.034;5.262;2023-08-06T02:16:53;17.50;82.40
12839;DHT22;6486;51.034;5.262;2023-08-06T02:19:19;17.50;82.50
12839;DHT22;6486;51.034;5.262;2023-08-06T02:21:45;17.50;82.50
12839;DHT22;6486;51.034;5.262;2023-08-06T02:24:10;17.50;82.50
12839;DHT22;6486;51.034;5.262;2023-08-06T02:26:36;17.50;82.50
12839;DHT22;6486;51.034;5.262;2023-08-06T02:29:02;17.50;82.60
12839;DHT22;6486;51.034;5.262;2023-08-06T02:31:27;17.50;82.70
12839;DHT22;6486;51.034;5.262;2023-08-06T02:33:53;17.50;82.80
12839;DHT22;6486;51.034;5.262;2023-08-06T02:36:19;17.50;82.80
12839;DHT22;6486;51.034;5.262;2023-08-06T02:38:45;17.50;82.80
12839;DHT22;6486;51.034;5.262;2023-08-06T02:41:10;17.50;82.80
12839;DHT22;6486;51.034;5.262;2023-08-06T02:43:36;17.60;82.90
12839;DHT22;6486;51.034;5.262;2023-08-06T02:46:02;17.50;82.80
12839;DHT22;6486;51.034;5.262;2023-08-06T02:48:28;17.60;83.00
12839;DHT22;6486;51.034;5.262;2023-08-06T02:50:57;17.60;83.00
12839;DHT22;6486;51.034;5.262;2023-08-06T02:53:24;17.60;83.00
12839;DHT22;6486;51.034;5.262;2023-08-06T02:55:50;17.60;83.00
12839;DHT22;6486;51.034;5.262;2023-08-06T02:58:16;17.60;83.00
12839;DHT22;6486;51.034;5.262;2023-08-06T03:00:43;17.60;83.00
12839;DHT22;6486;51.034;5.262;2023-08-06T03:03:09;17.60;83.00
12839;DHT22;6486;51.034;5.262;2023-08-06T03:05:35;17.60;83.10
12839;DHT22;6486;51.034;5.262;2023-08-06T03:08:01;17.60;83.00
12839;DHT22;6486;51.034;5.262;2023-08-06T03:10:26;17.60;83.10
12839;DHT22;6486;51.034;5.262;2023-08-06T03:12:52;17.60;83.10
12839;DHT22;6486;51.034;5.262;2023-08-06T03:15:17;17.60;83.20
12839;DHT22;6486;51.034;5.262;2023-08-06T03:17:43;17.60;83.20
12839;DHT22;6486;51.034;5.262;2023-08-06T03:20:10;17.60;83.30
12839;DHT22;6486;51.034;5.262;2023-08-06T03:22:36;17.60;83.30
12839;DHT22;6486;51.034;5.262;2023-08-06T03:25:02;17.60;83.30
12839;DHT22;6486;51.034;5.262;2023-08-06T03:27:27;17.60;83.40
12839;DHT22;6486;51.034;5.262;2023-08-06T03:29:53;17.60;83.40
12839;DHT22;6486;51.034;5.262;2023-08-06T03:32:19;17.60;83.40
12839;DHT22;6486;51.034;5.262;2023-08-06T03:34:45;17.60;83.50
12839;DHT22;6486;51.034;5.262;2023-08-06T03:37:10;17.60;83.50
12839;DHT22;6486;51.034;5.262;2023-08-06T03:39:36;17.60;83.50
12839;DHT22;6486;51.034;5.262;2023-08-06T03:42:02;17.60;83.50
12839;DHT22;6486;51.034;5.262;2023-08-06T03:44:27;17.60;83.60
12839;DHT22;6486;51.034;5.262;2023-08-06T03:46:53;17.60;83.60
12839;DHT22;6486;51.034;5.262;2023-08-06T03:49:19;17.50;83.60
12839;DHT22;6486;51.034;5.262;2023-08-06T03:51:45;17.50;83.80
12839;DHT22;6486;51.034;5.262;2023-08-06T03:54:12;17.50;83.90
12839;DHT22;6486;51.034;5.262;2023-08-06T03:56:37;17.50;83.90
12839;DHT22;6486;51.034;5.262;2023-08-06T03:59:03;17.50;83.90
12839;DHT22;6486;51.034;5.262;2023-08-06T04:01:28;17.50;83.90
12839;DHT22;6486;51.034;5.262;2023-08-06T04:03:54;17.50;83.90
12839;DHT22;6486;51.034;5.262;2023-08-06T04:06:20;17.50;83.90
12839;DHT22;6486;51.034;5.262;2023-08-06T04:08:45;17.50;83.90
12839;DHT22;6486;51.034;5.262;2023-08-06T04:11:11;17.60;84.00
12839;DHT22;6486;51.034;5.262;2023-08-06T04:13:38;17.50;84.00
12839;DHT22;6486;51.034;5.262;2023-08-06T04:16:04;17.50;84.20
12839;DHT22;6486;51.034;5.262;2023-08-06T04:18:30;17.50;84.30
12839;DHT22;6486;51.034;5.262;2023-08-06T04:20:56;17.50;84.30
12839;DHT22;6486;51.034;5.262;2023-08-06T04:23:23;17.50;84.90
12839;DHT22;6486;51.034;5.262;2023-08-06T04:25:49;17.50;84.30
12839;DHT22;6486;51.034;5.262;2023-08-06T04:28:14;17.50;84.40
12839;DHT22;6486;51.034;5.262;2023-08-06T04:30:40;17.50;84.40
12839;DHT22;6486;51.034;5.262;2023-08-06T04:33:05;17.50;84.50
12839;DHT22;6486;51.034;5.262;2023-08-06T04:35:31;17.50;84.50
12839;DHT22;6486;51.034;5.262;2023-08-06T04:37:57;17.50;85.20
12839;DHT22;6486;51.034;5.262;2023-08-06T04:40:22;17.50;84.50
12839;DHT22;6486;51.034;5.262;2023-08-06T04:42:48;17.50;84.60
12839;DHT22;6486;51.034;5.262;2023-08-06T04:45:14;17.50;84.70
12839;DHT22;6486;51.034;5.262;2023-08-06T04:47:39;17.50;84.80
12839;DHT22;6486;51.034;5.262;2023-08-06T04:50:05;17.50;84.80
12839;DHT22;6486;51.034;5.262;2023-08-06T04:52:31;17.50;84.80
12839;DHT22;6486;51.034;5.262;2023-08-06T04:54:57;17.50;84.90
12839;DHT22;6486;51.034;5.262;2023-08-06T04:57:23;17.50;85.00
12839;DHT22;6486;51.034;5.262;2023-08-06T04:59:49;17.50;85.00
12839;DHT22;6486;51.034;5.262;2023-08-06T05:02:14;17.50;85.10
12839;DHT22;6486;51.034;5.262;2023-08-06T05:04:40;17.50;85.20
12839;DHT22;6486;51.034;5.262;2023-08-06T05:07:06;17.50;85.30
12839;DHT22;6486;51.034;5.262;2023-08-06T05:09:32;17.50;85.40
12839;DHT22;6486;51.034;5.262;2023-08-06T05:12:00;17.50;85.60
12839;DHT22;6486;51.034;5.262;2023-08-06T05:14:25;17.50;85.60
12839;DHT22;6486;51.034;5.262;2023-08-06T05:16:51;17.50;85.70
12839;DHT22;6486;51.034;5.262;2023-08-06T05:19:17;17.40;85.60
12839;DHT22;6486;51.034;5.262;2023-08-06T05:21:42;17.50;85.80
12839;DHT22;6486;51.034;5.262;2023-08-06T05:24:08;17.40;85.80
12839;DHT22;6486;51.034;5.262;2023-08-06T05:26:33;17.40;85.90
12839;DHT22;6486;51.034;5.262;2023-08-06T05:29:00;17.40;86.00
12839;DHT22;6486;51.034;5.262;2023-08-06T05:31:25;17.40;86.10
12839;DHT22;6486;51.034;5.262;2023-08-06T05:33:51;17.40;86.20
12839;DHT22;6486;51.034;5.262;2023-08-06T05:36:17;17.40;86.30
12839;DHT22;6486;51.034;5.262;2023-08-06T05:38:43;17.40;86.40
12839;DHT22;6486;51.034;5.262;2023-08-06T05:41:08;17.40;86.40
12839;DHT22;6486;51.034;5.262;2023-08-06T05:43:34;17.40;86.50
12839;DHT22;6486;51.034;5.262;2023-08-06T05:46:00;17.40;86.60
12839;DHT22;6486;51.034;5.262;2023-08-06T05:48:25;17.30;86.50
12839;DHT22;6486;51.034;5.262;2023-08-06T05:50:53;17.30;86.60
12839;DHT22;6486;51.034;5.262;2023-08-06T05:53:19;17.30;86.70
12839;DHT22;6486;51.034;5.262;2023-08-06T05:55:45;17.30;86.80
12839;DHT22;6486;51.034;5.262;2023-08-06T05:58:10;17.30;86.90
12839;DHT22;6486;51.034;5.262;2023-08-06T06:00:36;17.30;86.90
12839;DHT22;6486;51.034;5.262;2023-08-06T06:03:02;17.20;87.00
12839;DHT22;6486;51.034;5.262;2023-08-06T06:05:28;17.20;87.20
12839;DHT22;6486;51.034;5.262;2023-08-06T06:07:53;17.20;87.30
12839;DHT22;6486;51.034;5.262;2023-08-06T06:10:19;17.10;87.50
12839;DHT22;6486;51.034;5.262;2023-08-06T06:12:45;17.00;87.50
12839;DHT22;6486;51.034;5.262;2023-08-06T06:15:10;17.00;87.80
12839;DHT22;6486;51.034;5.262;2023-08-06T06:17:36;16.90;87.80
12839;DHT22;6486;51.034;5.262;2023-08-06T06:20:02;16.80;88.00
12839;DHT22;6486;51.034;5.262;2023-08-06T06:22:29;16.70;88.10
12839;DHT22;6486;51.034;5.262;2023-08-06T06:24:55;16.70;88.10
12839;DHT22;6486;51.034;5.262;2023-08-06T06:27:21;16.60;88.00
12839;DHT22;6486;51.034;5.262;2023-08-06T06:29:46;16.60;88.00
12839;DHT22;6486;51.034;5.262;2023-08-06T06:32:12;16.50;87.90
12839;DHT22;6486;51.034;5.262;2023-08-06T06:34:37;16.40;87.80
12839;DHT22;6486;51.034;5.262;2023-08-06T06:37:03;16.40;87.80
12839;DHT22;6486;51.034;5.262;2023-08-06T06:39:29;16.30;87.80
12839;DHT22;6486;51.034;5.262;2023-08-06T06:41:55;16.30;87.80
12839;DHT22;6486;51.034;5.262;2023-08-06T06:44:20;16.30;87.90
12839;DHT22;6486;51.034;5.262;2023-08-06T06:46:46;16.20;87.80
12839;DHT22;6486;51.034;5.262;2023-08-06T06:49:12;16.20;87.80
12839;DHT22;6486;51.034;5.262;2023-08-06T06:51:43;16.10;87.70
12839;DHT22;6486;51.034;5.262;2023-08-06T06:54:09;16.10;87.90
12839;DHT22;6486;51.034;5.262;2023-08-06T06:56:35;16.10;88.00
12839;DHT22;6486;51.034;5.262;2023-08-06T06:59:00;16.10;88.60
12839;DHT22;6486;51.034;5.262;2023-08-06T07:01:26;16.10;88.00
12839;DHT22;6486;51.034;5.262;2023-08-06T07:03:52;16.10;88.10
12839;DHT22;6486;51.034;5.262;2023-08-06T07:06:17;16.10;88.10
12839;DHT22;6486;51.034;5.262;2023-08-06T07:08:44;16.20;88.30
12839;DHT22;6486;51.034;5.262;2023-08-06T07:11:10;16.20;88.30
12839;DHT22;6486;51.034;5.262;2023-08-06T07:13:36;16.20;88.30
12839;DHT22;6486;51.034;5.262;2023-08-06T07:16:02;16.20;88.30
12839;DHT22;6486;51.034;5.262;2023-08-06T07:18:27;16.20;88.40
12839;DHT22;6486;51.034;5.262;2023-08-06T07:20:54;16.20;88.50
12839;DHT22;6486;51.034;5.262;2023-08-06T07:23:21;16.20;88.50
12839;DHT22;6486;51.034;5.262;2023-08-06T07:25:47;16.30;88.70
12839;DHT22;6486;51.034;5.262;2023-08-06T07:28:14;16.30;88.70
12839;DHT22;6486;51.034;5.262;2023-08-06T07:30:40;16.30;88.60
12839;DHT22;6486;51.034;5.262;2023-08-06T07:33:06;16.30;88.70
12839;DHT22;6486;51.034;5.262;2023-08-06T07:35:32;16.30;88.70
12839;DHT22;6486;51.034;5.262;2023-08-06T07:37:58;16.30;88.70
12839;DHT22;6486;51.034;5.262;2023-08-06T07:40:24;16.30;88.70
12839;DHT22;6486;51.034;5.262;2023-08-06T07:42:50;16.30;88.80
12839;DHT22;6486;51.034;5.262;2023-08-06T07:45:16;16.30;88.80
12839;DHT22;6486;51.034;5.262;2023-08-06T07:47:41;16.30;88.80
12839;DHT22;6486;51.034;5.262;2023-08-06T07:50:08;16.30;88.80
12839;DHT22;6486;51.034;5.262;2023-08-06T07:52:34;16.30;88.70
12839;DHT22;6486;51.034;5.262;2023-08-06T07:55:00;16.30;88.70
12839;DHT22;6486;51.034;5.262;2023-08-06T07:57:30;16.30;88.70
12839;DHT22;6486;51.034;5.262;2023-08-06T07:59:56;16.30;88.70
12839;DHT22;6486;51.034;5.262;2023-08-06T08:02:22;16.30;88.70
12839;DHT22;6486;51.034;5.262;2023-08-06T08:04:48;16.30;88.70
12839;DHT22;6486;51.034;5.262;2023-08-06T08:07:14;16.30;88.60
12839;DHT22;6486;51.034;5.262;2023-08-06T08:09:40;16.30;88.70
12839;DHT22;6486;51.034;5.262;2023-08-06T08:12:06;16.30;88.60
12839;DHT22;6486;51.034;5.262;2023-08-06T08:14:32;16.30;88.60
12839;DHT22;6486;51.034;5.262;2023-08-06T08:17:03;16.30;88.60
12839;DHT22;6486;51.034;5.262;2023-08-06T08:19:29;16.40;88.60
12839;DHT22;6486;51.034;5.262;2023-08-06T08:21:55;16.40;88.60
12839;DHT22;6486;51.034;5.262;2023-08-06T08:24:21;16.40;88.40
12839;DHT22;6486;51.034;5.262;2023-08-06T08:26:52;16.50;88.50
12839;DHT22;6486;51.034;5.262;2023-08-06T08:29:21;16.50;88.50
12839;DHT22;6486;51.034;5.262;2023-08-06T08:31:48;16.50;88.50
12839;DHT22;6486;51.034;5.262;2023-08-06T08:34:16;16.50;88.50
12839;DHT22;6486;51.034;5.262;2023-08-06T08:36:42;16.50;88.50
12839;DHT22;6486;51.034;5.262;2023-08-06T08:39:08;16.50;88.40
12839;DHT22;6486;51.034;5.262;2023-08-06T08:41:35;16.50;88.40
12839;DHT22;6486;51.034;5.262;2023-08-06T08:44:02;16.50;88.40
12839;DHT22;6486;51.034;5.262;2023-08-06T08:46:30;16.50;88.60
12839;DHT22;6486;51.034;5.262;2023-08-06T08:48:59;16.50;88.70
12839;DHT22;6486;51.034;5.262;2023-08-06T08:51:29;16.60;88.60
12839;DHT22;6486;51.034;5.262;2023-08-06T08:53:56;16.60;88.60
12839;DHT22;6486;51.034;5.262;2023-08-06T08:56:23;16.60;88.70
12839;DHT22;6486;51.034;5.262;2023-08-06T08:58:49;16.60;88.70
12839;DHT22;6486;51.034;5.262;2023-08-06T09:01:15;16.60;88.60
12839;DHT22;6486;51.034;5.262;2023-08-06T09:03:43;16.60;88.60
12839;DHT22;6486;51.034;5.262;2023-08-06T09:06:10;16.70;88.70
12839;DHT22;6486;51.034;5.262;2023-08-06T09:08:41;16.80;88.70
12839;DHT22;6486;51.034;5.262;2023-08-06T09:11:09;16.80;88.60
12839;DHT22;6486;51.034;5.262;2023-08-06T09:13:38;16.80;88.50
12839;DHT22;6486;51.034;5.262;2023-08-06T09:16:04;16.80;88.60
12839;DHT22;6486;51.034;5.262;2023-08-06T09:18:30;16.90;89.40
12839;DHT22;6486;51.034;5.262;2023-08-06T09:20:59;16.90;88.60
12839;DHT22;6486;51.034;5.262;2023-08-06T09:23:29;17.00;88.60
12839;DHT22;6486;51.034;5.262;2023-08-06T09:25:56;17.00;88.50
12839;DHT22;6486;51.034;5.262;2023-08-06T09:28:22;17.00;88.30
12839;DHT22;6486;51.034;5.262;2023-08-06T09:30:50;17.00;88.40
12839;DHT22;6486;51.034;5.262;2023-08-06T09:33:19;16.90;88.30
12839;DHT22;6486;51.034;5.262;2023-08-06T09:35:46;16.90;88.50
12839;DHT22;6486;51.034;5.262;2023-08-06T09:38:12;16.90;88.50
12839;DHT22;6486;51.034;5.262;2023-08-06T09:40:39;16.80;88.40
12839;DHT22;6486;51.034;5.262;2023-08-06T09:43:05;16.80;88.40
12839;DHT22;6486;51.034;5.262;2023-08-06T09:45:32;16.80;88.60
12839;DHT22;6486;51.034;5.262;2023-08-06T09:48:03;16.80;88.60
12839;DHT22;6486;51.034;5.262;2023-08-06T09:50:33;16.80;88.60
12839;DHT22;6486;51.034;5.262;2023-08-06T09:53:01;16.80;88.50
12839;DHT22;6486;51.034;5.262;2023-08-06T09:55:27;16.80;88.60
12839;DHT22;6486;51.034;5.262;2023-08-06T09:57:53;16.80;88.60
12839;DHT22;6486;51.034;5.262;2023-08-06T10:00:19;16.80;88.70
12839;DHT22;6486;51.034;5.262;2023-08-06T10:02:46;16.80;88.70
12839;DHT22;6486;51.034;5.262;2023-08-06T10:05:12;16.80;88.60
12839;DHT22;6486;51.034;5.262;2023-08-06T10:07:39;16.90;88.70
12839;DHT22;6486;51.034;5.262;2023-08-06T10:10:06;16.90;88.50
12839;DHT22;6486;51.034;5.262;2023-08-06T10:12:36;17.00;88.50
12839;DHT22;6486;51.034;5.262;2023-08-06T10:15:06;16.90;88.20
12839;DHT22;6486;51.034;5.262;2023-08-06T10:17:34;16.90;88.20
12839;DHT22;6486;51.034;5.262;2023-08-06T10:20:02;16.80;88.20
12839;DHT22;6486;51.034;5.262;2023-08-06T10:22:28;16.80;88.50
12839;DHT22;6486;51.034;5.262;2023-08-06T10:24:58;16.80;88.60
12839;DHT22;6486;51.034;5.262;2023-08-06T10:30:28;16.70;88.70
12839;DHT22;6486;51.034;5.262;2023-08-06T10:32:58;16.70;88.90
12839;DHT22;6486;51.034;5.262;2023-08-06T10:35:47;16.70;88.90
12839;DHT22;6486;51.034;5.262;2023-08-06T10:38:18;16.70;89.00
12839;DHT22;6486;51.034;5.262;2023-08-06T10:43:28;16.70;88.90
12839;DHT22;6486;51.034;5.262;2023-08-06T10:45:55;16.70;88.90
12839;DHT22;6486;51.034;5.262;2023-08-06T10:48:33;16.70;88.90
12839;DHT22;6486;51.034;5.262;2023-08-06T10:51:00;16.70;89.10
12839;DHT22;6486;51.034;5.262;2023-08-06T10:53:26;16.60;88.90
12839;DHT22;6486;51.034;5.262;2023-08-06T10:55:52;16.60;89.00
12839;DHT22;6486;51.034;5.262;2023-08-06T10:58:17;16.60;89.10
12839;DHT22;6486;51.034;5.262;2023-08-06T11:00:43;16.60;89.10
12839;DHT22;6486;51.034;5.262;2023-08-06T11:03:09;16.70;89.20
12839;DHT22;6486;51.034;5.262;2023-08-06T11:05:35;16.70;89.10
12839;DHT22;6486;51.034;5.262;2023-08-06T11:08:01;16.80;89.10
12839;DHT22;6486;51.034;5.262;2023-08-06T11:10:27;16.90;89.10
12839;DHT22;6486;51.034;5.262;2023-08-06T11:12:53;16.90;89.10
12839;DHT22;6486;51.034;5.262;2023-08-06T11:15:20;17.00;89.20
12839;DHT22;6486;51.034;5.262;2023-08-06T11:17:47;17.00;89.10
12839;DHT22;6486;51.034;5.262;2023-08-06T11:20:13;17.10;89.10
12839;DHT22;6486;51.034;5.262;2023-08-06T11:22:39;17.10;89.10
12839;DHT22;6486;51.034;5.262;2023-08-06T11:25:06;17.10;89.10
12839;DHT22;6486;51.034;5.262;2023-08-06T11:27:32;17.20;89.10
12839;DHT22;6486;51.034;5.262;2023-08-06T11:29:58;17.10;89.10
12839;DHT22;6486;51.034;5.262;2023-08-06T11:32:24;17.10;89.10
12839;DHT22;6486;51.034;5.262;2023-08-06T11:34:50;17.00;89.10
12839;DHT22;6486;51.034;5.262;2023-08-06T11:37:16;17.00;89.40
12839;DHT22;6486;51.034;5.262;2023-08-06T11:39:46;17.10;89.50
12839;DHT22;6486;51.034;5.262;2023-08-06T11:42:13;17.10;89.30
12839;DHT22;6486;51.034;5.262;2023-08-06T11:44:40;17.20;89.40
12839;DHT22;6486;51.034;5.262;2023-08-06T11:47:16;17.20;89.20
12839;DHT22;6486;51.034;5.262;2023-08-06T11:49:48;17.30;89.00
12839;DHT22;6486;51.034;5.262;2023-08-06T11:52:19;17.30;88.80
12839;DHT22;6486;51.034;5.262;2023-08-06T11:55:08;17.30;88.70
12839;DHT22;6486;51.034;5.262;2023-08-06T11:57:34;17.30;88.80
12839;DHT22;6486;51.034;5.262;2023-08-06T12:00:11;17.30;88.80
12839;DHT22;6486;51.034;5.262;2023-08-06T12:02:39;17.40;88.70
12839;DHT22;6486;51.034;5.262;2023-08-06T12:05:10;17.40;88.50
12839;DHT22;6486;51.034;5.262;2023-08-06T12:07:38;17.40;88.40
12839;DHT22;6486;51.034;5.262;2023-08-06T12:10:04;17.50;88.40
12839;DHT22;6486;51.034;5.262;2023-08-06T12:12:30;17.50;88.40
12839;DHT22;6486;51.034;5.262;2023-08-06T12:14:56;17.50;88.30
12839;DHT22;6486;51.034;5.262;2023-08-06T12:17:24;17.50;88.20
12839;DHT22;6486;51.034;5.262;2023-08-06T12:19:49;17.60;88.20
12839;DHT22;6486;51.034;5.262;2023-08-06T12:22:16;17.60;88.10
12839;DHT22;6486;51.034;5.262;2023-08-06T12:24:46;17.50;88.10
12839;DHT22;6486;51.034;5.262;2023-08-06T12:27:12;17.50;88.20
12839;DHT22;6486;51.034;5.262;2023-08-06T12:29:47;17.40;88.00
12839;DHT22;6486;51.034;5.262;2023-08-06T12:32:13;17.40;88.10
12839;DHT22;6486;51.034;5.262;2023-08-06T12:34:40;17.40;88.00
12839;DHT22;6486;51.034;5.262;2023-08-06T12:37:07;17.40;88.00
12839;DHT22;6486;51.034;5.262;2023-08-06T12:39:33;17.30;87.80
12839;DHT22;6486;51.034;5.262;2023-08-06T12:42:00;17.20;87.80
12839;DHT22;6486;51.034;5.262;2023-08-06T12:44:26;17.30;87.90
12839;DHT22;6486;51.034;5.262;2023-08-06T12:46:53;17.20;87.80
12839;DHT22;6486;51.034;5.262;2023-08-06T12:49:19;17.10;88.00
12839;DHT22;6486;51.034;5.262;2023-08-06T12:51:49;17.00;88.20
12839;DHT22;6486;51.034;5.262;2023-08-06T12:54:18;17.00;88.20
12839;DHT22;6486;51.034;5.262;2023-08-06T12:56:45;16.90;88.00
12839;DHT22;6486;51.034;5.262;2023-08-06T12:59:11;16.90;88.20
12839;DHT22;6486;51.034;5.262;2023-08-06T13:01:38;16.80;88.40
12839;DHT22;6486;51.034;5.262;2023-08-06T13:04:04;16.80;88.50
12839;DHT22;6486;51.034;5.262;2023-08-06T13:06:29;16.90;88.60
12839;DHT22;6486;51.034;5.262;2023-08-06T13:08:57;16.90;88.50
12839;DHT22;6486;51.034;5.262;2023-08-06T13:11:23;16.80;88.50
12839;DHT22;6486;51.034;5.262;2023-08-06T13:13:48;16.80;88.60
12839;DHT22;6486;51.034;5.262;2023-08-06T13:16:14;16.80;88.80
12839;DHT22;6486;51.034;5.262;2023-08-06T13:18:40;16.80;88.70
12839;DHT22;6486;51.034;5.262;2023-08-06T13:21:06;16.70;88.80
12839;DHT22;6486;51.034;5.262;2023-08-06T13:23:32;16.70;88.90
12839;DHT22;6486;51.034;5.262;2023-08-06T13:25:57;16.70;88.90
12839;DHT22;6486;51.034;5.262;2023-08-06T13:28:24;16.70;89.20
12839;DHT22;6486;51.034;5.262;2023-08-06T13:30:49;16.80;89.20
12839;DHT22;6486;51.034;5.262;2023-08-06T13:33:15;16.90;89.30
12839;DHT22;6486;51.034;5.262;2023-08-06T13:35:41;16.90;89.20
12839;DHT22;6486;51.034;5.262;2023-08-06T13:38:07;17.00;89.20
12839;DHT22;6486;51.034;5.262;2023-08-06T13:40:34;17.10;89.40
12839;DHT22;6486;51.034;5.262;2023-08-06T13:43:00;17.20;89.20
12839;DHT22;6486;51.034;5.262;2023-08-06T13:45:26;17.20;89.10
12839;DHT22;6486;51.034;5.262;2023-08-06T13:47:51;17.20;89.00
12839;DHT22;6486;51.034;5.262;2023-08-06T13:50:17;17.20;88.90
12839;DHT22;6486;51.034;5.262;2023-08-06T13:55:12;17.10;88.70
12839;DHT22;6486;51.034;5.262;2023-08-06T13:57:38;17.10;88.80
12839;DHT22;6486;51.034;5.262;2023-08-06T14:00:04;17.00;88.60
12839;DHT22;6486;51.034;5.262;2023-08-06T14:02:31;17.00;88.60
12839;DHT22;6486;51.034;5.262;2023-08-06T14:04:56;16.90;88.50
12839;DHT22;6486;51.034;5.262;2023-08-06T14:07:22;16.80;88.50
12839;DHT22;6486;51.034;5.262;2023-08-06T14:09:48;16.70;88.50
12839;DHT22;6486;51.034;5.262;2023-08-06T14:12:15;16.70;88.80
12839;DHT22;6486;51.034;5.262;2023-08-06T14:14:40;16.70;88.80
12839;DHT22;6486;51.034;5.262;2023-08-06T14:17:06;16.80;89.00
12839;DHT22;6486;51.034;5.262;2023-08-06T14:19:32;16.80;89.00
12839;DHT22;6486;51.034;5.262;2023-08-06T14:21:58;16.90;89.00
12839;DHT22;6486;51.034;5.262;2023-08-06T14:24:23;17.00;88.80
12839;DHT22;6486;51.034;5.262;2023-08-06T14:26:49;17.00;88.70
12839;DHT22;6486;51.034;5.262;2023-08-06T14:29:14;17.10;88.90
12839;DHT22;6486;51.034;5.262;2023-08-06T14:31:40;17.10;88.80
12839;DHT22;6486;51.034;5.262;2023-08-06T14:34:06;17.10;88.80
12839;DHT22;6486;51.034;5.262;2023-08-06T14:36:32;17.10;88.70
12839;DHT22;6486;51.034;5.262;2023-08-06T14:38:58;17.10;88.80
12839;DHT22;6486;51.034;5.262;2023-08-06T14:41:24;17.10;88.70
12839;DHT22;6486;51.034;5.262;2023-08-06T14:43:50;17.00;88.50
12839;DHT22;6486;51.034;5.262;2023-08-06T14:46:16;16.90;88.60
12839;DHT22;6486;51.034;5.262;2023-08-06T14:48:41;16.90;88.60
12839;DHT22;6486;51.034;5.262;2023-08-06T14:51:08;16.90;88.60
12839;DHT22;6486;51.034;5.262;2023-08-06T14:53:34;16.80;88.50
12839;DHT22;6486;51.034;5.262;2023-08-06T14:55:59;16.80;88.50
12839;DHT22;6486;51.034;5.262;2023-08-06T14:58:25;16.70;88.20
12839;DHT22;6486;51.034;5.262;2023-08-06T15:00:51;16.70;88.00
12839;DHT22;6486;51.034;5.262;2023-08-06T15:03:16;16.60;87.80
12839;DHT22;6486;51.034;5.262;2023-08-06T15:05:48;16.50;88.10
12839;DHT22;6486;51.034;5.262;2023-08-06T15:08:14;16.50;88.20
12839;DHT22;6486;51.034;5.262;2023-08-06T15:10:40;16.40;88.20
12839;DHT22;6486;51.034;5.262;2023-08-06T15:13:06;16.40;88.50
12839;DHT22;6486;51.034;5.262;2023-08-06T15:15:32;16.30;88.50
12839;DHT22;6486;51.034;5.262;2023-08-06T15:17:58;16.30;88.50
12839;DHT22;6486;51.034;5.262;2023-08-06T15:20:24;16.30;88.50
12839;DHT22;6486;51.034;5.262;2023-08-06T15:22:49;16.30;88.50
12839;DHT22;6486;51.034;5.262;2023-08-06T15:25:15;16.30;88.50
12839;DHT22;6486;51.034;5.262;2023-08-06T15:27:41;16.40;88.70
12839;DHT22;6486;51.034;5.262;2023-08-06T15:30:07;16.40;88.60
12839;DHT22;6486;51.034;5.262;2023-08-06T15:32:33;16.50;88.60
12839;DHT22;6486;51.034;5.262;2023-08-06T15:34:59;16.40;88.20
12839;DHT22;6486;51.034;5.262;2023-08-06T15:37:24;16.50;88.30
12839;DHT22;6486;51.034;5.262;2023-08-06T15:39:51;16.50;88.10
12839;DHT22;6486;51.034;5.262;2023-08-06T15:42:17;16.50;87.90
12839;DHT22;6486;51.034;5.262;2023-08-06T15:44:43;16.50;87.80
12839;DHT22;6486;51.034;5.262;2023-08-06T15:47:08;16.50;87.70
12839;DHT22;6486;51.034;5.262;2023-08-06T15:49:35;16.40;87.50
12839;DHT22;6486;51.034;5.262;2023-08-06T15:52:00;16.40;87.70